sensor_id;sensor_type;location;lat;lon;timestamp;P1;durP1;ratioP1;P2;durP2;ratioP2
17595;SDS011;8916;47.086;15.920;2022-10-17T00:01:33;69.95;;;39.60;;
17595;SDS011;8916;47.086;15.920;2022-10-17T00:04:03;84.57;;;44.17;;
17595;SDS011;8916;47.086;15.920;2022-10-17T00:06:32;90.85;;;48.05;;
17595;SDS011;8916;47.086;15.920;2022-10-17T00:09:01;110.00;;;49.60;;
17595;SDS011;8916;47.086;15.920;2022-10-17T00:11:30;107.32;;;52.08;;
17595;SDS011;8916;47.086;15.920;2022-10-17T00:14:00;110.38;;;53.85;;
17595;SDS011;8916;47.086;15.920;2022-10-17T00:16:30;113.57;;;53.60;;
17595;SDS011;8916;47.086;15.920;2022-10-17T00:19:04;116.07;;;55.08;;
17595;SDS011;8916;47.086;15.920;2022-10-17T00:21:34;110.93;;;55.33;;
17595;SDS011;8916;47.086;15.920;2022-10-17T00:24:03;94.22;;;49.10;;
17595;SDS011;8916;47.086;15.920;2022-10-17T00:26:33;78.32;;;42.83;;
17595;SDS011;8916;47.086;15.920;2022-10-17T00:29:02;73.00;;;40.58;;
17595;SDS011;8916;47.086;15.920;2022-10-17T00:31:33;82.90;;;45.65;;
17595;SDS011;8916;47.086;15.920;2022-10-17T00:34:04;76.82;;;42.30;;
17595;SDS011;8916;47.086;15.920;2022-10-17T00:36:33;78.78;;;43.70;;
17595;SDS011;8916;47.086;15.920;2022-10-17T00:39:02;80.10;;;45.33;;
17595;SDS011;8916;47.086;15.920;2022-10-17T00:41:32;78.75;;;42.78;;
17595;SDS011;8916;47.086;15.920;2022-10-17T00:44:05;78.30;;;44.55;;
17595;SDS011;8916;47.086;15.920;2022-10-17T00:46:57;132.23;;;45.85;;
17595;SDS011;8916;47.086;15.920;2022-10-17T00:49:31;94.05;;;43.75;;
17595;SDS011;8916;47.086;15.920;2022-10-17T00:52:05;80.35;;;44.75;;
17595;SDS011;8916;47.086;15.920;2022-10-17T00:54:41;81.03;;;43.85;;
17595;SDS011;8916;47.086;15.920;2022-10-17T00:57:15;87.57;;;44.15;;
17595;SDS011;8916;47.086;15.920;2022-10-17T00:59:46;91.10;;;48.15;;
17595;SDS011;8916;47.086;15.920;2022-10-17T01:02:20;98.50;;;48.28;;
17595;SDS011;8916;47.086;15.920;2022-10-17T01:04:51;114.65;;;52.10;;
17595;SDS011;8916;47.086;15.920;2022-10-17T01:07:25;99.72;;;49.05;;
17595;SDS011;8916;47.086;15.920;2022-10-17T01:10:03;81.90;;;45.95;;
17595;SDS011;8916;47.086;15.920;2022-10-17T01:12:37;80.40;;;44.75;;
17595;SDS011;8916;47.086;15.920;2022-10-17T01:15:18;80.75;;;45.53;;
17595;SDS011;8916;47.086;15.920;2022-10-17T01:18:10;72.22;;;42.58;;
17595;SDS011;8916;47.086;15.920;2022-10-17T01:21:08;85.80;;;46.53;;
17595;SDS011;8916;47.086;15.920;2022-10-17T01:27:43;69.38;;;39.53;;
17595;SDS011;8916;47.086;15.920;2022-10-17T01:33:43;68.18;;;38.20;;
17595;SDS011;8916;47.086;15.920;2022-10-17T01:36:32;74.30;;;42.28;;
17595;SDS011;8916;47.086;15.920;2022-10-17T01:39:10;87.68;;;41.63;;
17595;SDS011;8916;47.086;15.920;2022-10-17T01:41:46;78.82;;;40.47;;
17595;SDS011;8916;47.086;15.920;2022-10-17T01:44:22;83.75;;;38.83;;
17595;SDS011;8916;47.086;15.920;2022-10-17T01:47:02;73.22;;;40.35;;
17595;SDS011;8916;47.086;15.920;2022-10-17T01:49:36;71.20;;;41.63;;
17595;SDS011;8916;47.086;15.920;2022-10-17T01:52:09;82.85;;;42.97;;
17595;SDS011;8916;47.086;15.920;2022-10-17T01:54:44;78.72;;;43.15;;
17595;SDS011;8916;47.086;15.920;2022-10-17T01:57:21;146.52;;;44.88;;
17595;SDS011;8916;47.086;15.920;2022-10-17T01:59:57;98.90;;;44.78;;
17595;SDS011;8916;47.086;15.920;2022-10-17T02:02:29;109.53;;;45.55;;
17595;SDS011;8916;47.086;15.920;2022-10-17T02:04:59;84.78;;;40.92;;
17595;SDS011;8916;47.086;15.920;2022-10-17T02:07:30;80.30;;;42.70;;
17595;SDS011;8916;47.086;15.920;2022-10-17T02:09:59;81.57;;;41.25;;
17595;SDS011;8916;47.086;15.920;2022-10-17T02:12:41;72.50;;;40.22;;
17595;SDS011;8916;47.086;15.920;2022-10-17T02:15:22;82.38;;;40.90;;
17595;SDS011;8916;47.086;15.920;2022-10-17T02:18:13;65.18;;;38.38;;
17595;SDS011;8916;47.086;15.920;2022-10-17T02:20:55;63.55;;;39.65;;
17595;SDS011;8916;47.086;15.920;2022-10-17T02:23:31;65.13;;;38.33;;
17595;SDS011;8916;47.086;15.920;2022-10-17T02:26:09;58.45;;;36.90;;
17595;SDS011;8916;47.086;15.920;2022-10-17T02:28:46;58.03;;;35.73;;
17595;SDS011;8916;47.086;15.920;2022-10-17T02:31:27;56.10;;;36.50;;
17595;SDS011;8916;47.086;15.920;2022-10-17T02:34:08;56.15;;;36.85;;
17595;SDS011;8916;47.086;15.920;2022-10-17T02:36:47;68.50;;;39.90;;
17595;SDS011;8916;47.086;15.920;2022-10-17T02:39:21;72.15;;;40.33;;
17595;SDS011;8916;47.086;15.920;2022-10-17T02:41:52;84.55;;;40.08;;
17595;SDS011;8916;47.086;15.920;2022-10-17T02:44:25;72.00;;;41.72;;
17595;SDS011;8916;47.086;15.920;2022-10-17T02:46:58;82.22;;;44.78;;
17595;SDS011;8916;47.086;15.920;2022-10-17T02:49:38;81.97;;;44.42;;
17595;SDS011;8916;47.086;15.920;2022-10-17T02:52:11;90.60;;;46.38;;
17595;SDS011;8916;47.086;15.920;2022-10-17T02:54:46;84.82;;;45.85;;
17595;SDS011;8916;47.086;15.920;2022-10-17T02:57:21;78.55;;;44.95;;
17595;SDS011;8916;47.086;15.920;2022-10-17T02:59:56;72.57;;;40.17;;
17595;SDS011;8916;47.086;15.920;2022-10-17T03:02:29;84.43;;;41.53;;
17595;SDS011;8916;47.086;15.920;2022-10-17T03:05:12;78.03;;;43.05;;
17595;SDS011;8916;47.086;15.920;2022-10-17T03:07:43;70.85;;;40.17;;
17595;SDS011;8916;47.086;15.920;2022-10-17T03:10:13;70.90;;;39.63;;
17595;SDS011;8916;47.086;15.920;2022-10-17T03:12:43;71.45;;;41.90;;
17595;SDS011;8916;47.086;15.920;2022-10-17T03:15:12;67.50;;;39.45;;
17595;SDS011;8916;47.086;15.920;2022-10-17T03:17:42;72.70;;;39.75;;
17595;SDS011;8916;47.086;15.920;2022-10-17T03:20:18;63.22;;;39.47;;
17595;SDS011;8916;47.086;15.920;2022-10-17T03:22:48;58.35;;;35.70;;
17595;SDS011;8916;47.086;15.920;2022-10-17T03:25:18;57.20;;;35.15;;
17595;SDS011;8916;47.086;15.920;2022-10-17T03:27:48;55.92;;;33.22;;
17595;SDS011;8916;47.086;15.920;2022-10-17T03:30:18;50.25;;;32.67;;
17595;SDS011;8916;47.086;15.920;2022-10-17T03:32:50;49.10;;;31.40;;
17595;SDS011;8916;47.086;15.920;2022-10-17T03:35:21;65.90;;;38.22;;
17595;SDS011;8916;47.086;15.920;2022-10-17T03:37:50;68.30;;;38.25;;
17595;SDS011;8916;47.086;15.920;2022-10-17T03:40:21;61.20;;;36.55;;
17595;SDS011;8916;47.086;15.920;2022-10-17T03:42:50;59.90;;;36.35;;
17595;SDS011;8916;47.086;15.920;2022-10-17T03:45:19;61.45;;;35.03;;
17595;SDS011;8916;47.086;15.920;2022-10-17T03:47:50;53.63;;;33.00;;
17595;SDS011;8916;47.086;15.920;2022-10-17T03:50:21;61.80;;;34.35;;
17595;SDS011;8916;47.086;15.920;2022-10-17T03:52:51;53.75;;;32.70;;
17595;SDS011;8916;47.086;15.920;2022-10-17T03:55:20;49.15;;;31.38;;
17595;SDS011;8916;47.086;15.920;2022-10-17T03:57:49;48.75;;;29.90;;
17595;SDS011;8916;47.086;15.920;2022-10-17T04:00:20;47.78;;;30.88;;
17595;SDS011;8916;47.086;15.920;2022-10-17T04:02:56;54.30;;;34.47;;
17595;SDS011;8916;47.086;15.920;2022-10-17T04:05:27;68.65;;;37.03;;
17595;SDS011;8916;47.086;15.920;2022-10-17T04:07:58;64.32;;;40.10;;
17595;SDS011;8916;47.086;15.920;2022-10-17T04:11:10;65.05;;;37.95;;
17595;SDS011;8916;47.086;15.920;2022-10-17T04:13:43;67.65;;;38.60;;
17595;SDS011;8916;47.086;15.920;2022-10-17T04:16:14;56.47;;;35.17;;
17595;SDS011;8916;47.086;15.920;2022-10-17T04:18:51;52.08;;;33.70;;
17595;SDS011;8916;47.086;15.920;2022-10-17T04:21:26;54.20;;;34.25;;
17595;SDS011;8916;47.086;15.920;2022-10-17T04:24:03;51.78;;;33.47;;
17595;SDS011;8916;47.086;15.920;2022-10-17T04:26:47;59.97;;;34.63;;
17595;SDS011;8916;47.086;15.920;2022-10-17T04:29:18;62.58;;;35.60;;
17595;SDS011;8916;47.086;15.920;2022-10-17T04:31:50;60.10;;;34.20;;
17595;SDS011;8916;47.086;15.920;2022-10-17T04:34:40;48.78;;;30.80;;
17595;SDS011;8916;47.086;15.920;2022-10-17T04:37:12;54.90;;;33.35;;
17595;SDS011;8916;47.086;15.920;2022-10-17T04:39:42;55.53;;;34.78;;
17595;SDS011;8916;47.086;15.920;2022-10-17T04:42:12;57.15;;;34.05;;
17595;SDS011;8916;47.086;15.920;2022-10-17T04:44:41;47.20;;;30.55;;
17595;SDS011;8916;47.086;15.920;2022-10-17T04:47:12;45.50;;;30.40;;
17595;SDS011;8916;47.086;15.920;2022-10-17T04:49:42;45.88;;;29.65;;
17595;SDS011;8916;47.086;15.920;2022-10-17T04:52:17;51.97;;;32.58;;
17595;SDS011;8916;47.086;15.920;2022-10-17T04:54:48;63.53;;;34.55;;
17595;SDS011;8916;47.086;15.920;2022-10-17T04:57:18;55.38;;;33.70;;
17595;SDS011;8916;47.086;15.920;2022-10-17T04:59:57;61.30;;;33.63;;
17595;SDS011;8916;47.086;15.920;2022-10-17T05:05:14;57.53;;;31.70;;
17595;SDS011;8916;47.086;15.920;2022-10-17T05:07:47;55.05;;;32.13;;
17595;SDS011;8916;47.086;15.920;2022-10-17T05:10:18;47.83;;;30.73;;
17595;SDS011;8916;47.086;15.920;2022-10-17T05:12:50;54.75;;;32.60;;
17595;SDS011;8916;47.086;15.920;2022-10-17T05:15:22;50.22;;;31.75;;
17595;SDS011;8916;47.086;15.920;2022-10-17T05:17:54;66.93;;;37.75;;
17595;SDS011;8916;47.086;15.920;2022-10-17T05:20:25;63.60;;;36.05;;
17595;SDS011;8916;47.086;15.920;2022-10-17T05:22:56;62.50;;;37.85;;
17595;SDS011;8916;47.086;15.920;2022-10-17T05:25:33;65.88;;;40.25;;
17595;SDS011;8916;47.086;15.920;2022-10-17T05:28:03;61.30;;;37.38;;
17595;SDS011;8916;47.086;15.920;2022-10-17T05:30:33;72.40;;;38.97;;
17595;SDS011;8916;47.086;15.920;2022-10-17T05:33:06;57.58;;;35.58;;
17595;SDS011;8916;47.086;15.920;2022-10-17T05:35:36;52.08;;;32.58;;
17595;SDS011;8916;47.086;15.920;2022-10-17T05:38:06;54.00;;;32.30;;
17595;SDS011;8916;47.086;15.920;2022-10-17T05:40:37;53.72;;;32.17;;
17595;SDS011;8916;47.086;15.920;2022-10-17T05:43:06;50.83;;;31.65;;
17595;SDS011;8916;47.086;15.920;2022-10-17T05:45:36;51.35;;;31.80;;
17595;SDS011;8916;47.086;15.920;2022-10-17T05:48:09;51.35;;;32.50;;
17595;SDS011;8916;47.086;15.920;2022-10-17T05:50:38;51.33;;;32.80;;
17595;SDS011;8916;47.086;15.920;2022-10-17T05:53:14;56.85;;;31.60;;
17595;SDS011;8916;47.086;15.920;2022-10-17T05:55:53;52.13;;;30.77;;
17595;SDS011;8916;47.086;15.920;2022-10-17T05:58:23;54.00;;;32.35;;
17595;SDS011;8916;47.086;15.920;2022-10-17T06:01:25;72.90;;;35.63;;
17595;SDS011;8916;47.086;15.920;2022-10-17T06:03:55;69.30;;;37.85;;
17595;SDS011;8916;47.086;15.920;2022-10-17T06:06:25;69.97;;;39.35;;
17595;SDS011;8916;47.086;15.920;2022-10-17T06:08:57;61.60;;;37.10;;
17595;SDS011;8916;47.086;15.920;2022-10-17T06:11:31;57.88;;;35.47;;
17595;SDS011;8916;47.086;15.920;2022-10-17T06:14:00;60.90;;;35.42;;
17595;SDS011;8916;47.086;15.920;2022-10-17T06:16:30;61.72;;;36.25;;
17595;SDS011;8916;47.086;15.920;2022-10-17T06:18:59;62.10;;;35.40;;
17595;SDS011;8916;47.086;15.920;2022-10-17T06:21:28;58.20;;;36.33;;
17595;SDS011;8916;47.086;15.920;2022-10-17T06:24:08;61.00;;;35.00;;
17595;SDS011;8916;47.086;15.920;2022-10-17T06:26:40;58.20;;;34.78;;
17595;SDS011;8916;47.086;15.920;2022-10-17T06:29:12;59.88;;;35.17;;
17595;SDS011;8916;47.086;15.920;2022-10-17T06:31:50;59.20;;;34.60;;
17595;SDS011;8916;47.086;15.920;2022-10-17T06:34:20;58.17;;;35.38;;
17595;SDS011;8916;47.086;15.920;2022-10-17T06:36:54;59.42;;;35.90;;
17595;SDS011;8916;47.086;15.920;2022-10-17T06:39:25;66.07;;;37.20;;
17595;SDS011;8916;47.086;15.920;2022-10-17T06:42:07;63.35;;;36.17;;
17595;SDS011;8916;47.086;15.920;2022-10-17T06:44:46;63.95;;;36.22;;
17595;SDS011;8916;47.086;15.920;2022-10-17T06:47:50;69.55;;;38.42;;
17595;SDS011;8916;47.086;15.920;2022-10-17T06:50:40;75.95;;;41.10;;
17595;SDS011;8916;47.086;15.920;2022-10-17T06:53:35;64.53;;;36.97;;
17595;SDS011;8916;47.086;15.920;2022-10-17T06:56:14;62.80;;;36.15;;
17595;SDS011;8916;47.086;15.920;2022-10-17T06:59:04;58.80;;;33.35;;
17595;SDS011;8916;47.086;15.920;2022-10-17T07:01:34;65.22;;;34.63;;
17595;SDS011;8916;47.086;15.920;2022-10-17T07:04:08;55.17;;;32.90;;
17595;SDS011;8916;47.086;15.920;2022-10-17T07:06:37;56.50;;;34.03;;
17595;SDS011;8916;47.086;15.920;2022-10-17T07:09:18;56.70;;;33.88;;
17595;SDS011;8916;47.086;15.920;2022-10-17T07:11:51;67.28;;;35.20;;
17595;SDS011;8916;47.086;15.920;2022-10-17T07:14:20;56.28;;;34.10;;
17595;SDS011;8916;47.086;15.920;2022-10-17T07:19:29;65.45;;;34.80;;
17595;SDS011;8916;47.086;15.920;2022-10-17T07:21:58;55.55;;;33.30;;
17595;SDS011;8916;47.086;15.920;2022-10-17T07:24:31;56.67;;;30.88;;
17595;SDS011;8916;47.086;15.920;2022-10-17T07:27:16;51.53;;;31.52;;
17595;SDS011;8916;47.086;15.920;2022-10-17T07:29:46;52.95;;;32.17;;
17595;SDS011;8916;47.086;15.920;2022-10-17T07:32:38;52.80;;;31.67;;
17595;SDS011;8916;47.086;15.920;2022-10-17T07:35:08;56.45;;;32.03;;
17595;SDS011;8916;47.086;15.920;2022-10-17T07:37:39;50.63;;;30.38;;
17595;SDS011;8916;47.086;15.920;2022-10-17T07:40:09;48.10;;;31.02;;
17595;SDS011;8916;47.086;15.920;2022-10-17T07:42:40;54.17;;;31.13;;
17595;SDS011;8916;47.086;15.920;2022-10-17T07:45:10;52.20;;;30.35;;
17595;SDS011;8916;47.086;15.920;2022-10-17T07:47:41;54.10;;;32.50;;
17595;SDS011;8916;47.086;15.920;2022-10-17T07:50:14;50.20;;;30.77;;
17595;SDS011;8916;47.086;15.920;2022-10-17T07:52:43;50.00;;;31.48;;
17595;SDS011;8916;47.086;15.920;2022-10-17T07:55:12;47.90;;;29.27;;
17595;SDS011;8916;47.086;15.920;2022-10-17T07:57:43;49.30;;;30.77;;
17595;SDS011;8916;47.086;15.920;2022-10-17T08:00:12;55.13;;;28.90;;
17595;SDS011;8916;47.086;15.920;2022-10-17T08:02:41;55.88;;;30.15;;
17595;SDS011;8916;47.086;15.920;2022-10-17T08:05:10;52.63;;;30.20;;
17595;SDS011;8916;47.086;15.920;2022-10-17T08:07:39;52.83;;;30.85;;
17595;SDS011;8916;47.086;15.920;2022-10-17T08:10:09;43.70;;;28.67;;
17595;SDS011;8916;47.086;15.920;2022-10-17T08:12:40;54.25;;;31.05;;
17595;SDS011;8916;47.086;15.920;2022-10-17T08:15:11;46.88;;;30.33;;
17595;SDS011;8916;47.086;15.920;2022-10-17T08:17:40;52.60;;;30.98;;
17595;SDS011;8916;47.086;15.920;2022-10-17T08:20:10;43.10;;;29.70;;
17595;SDS011;8916;47.086;15.920;2022-10-17T08:22:39;50.58;;;31.13;;
17595;SDS011;8916;47.086;15.920;2022-10-17T08:25:08;48.97;;;30.17;;
17595;SDS011;8916;47.086;15.920;2022-10-17T08:27:37;46.00;;;29.60;;
17595;SDS011;8916;47.086;15.920;2022-10-17T08:30:07;48.47;;;30.27;;
17595;SDS011;8916;47.086;15.920;2022-10-17T08:32:39;53.40;;;30.55;;
17595;SDS011;8916;47.086;15.920;2022-10-17T08:35:08;45.08;;;31.60;;
17595;SDS011;8916;47.086;15.920;2022-10-17T08:37:37;49.45;;;32.42;;
17595;SDS011;8916;47.086;15.920;2022-10-17T08:40:08;47.67;;;31.25;;
17595;SDS011;8916;47.086;15.920;2022-10-17T08:42:48;46.88;;;32.50;;
17595;SDS011;8916;47.086;15.920;2022-10-17T08:45:37;43.05;;;30.70;;
17595;SDS011;8916;47.086;15.920;2022-10-17T08:48:15;49.67;;;32.55;;
17595;SDS011;8916;47.086;15.920;2022-10-17T08:50:48;42.28;;;32.13;;
17595;SDS011;8916;47.086;15.920;2022-10-17T08:53:21;50.35;;;31.85;;
17595;SDS011;8916;47.086;15.920;2022-10-17T08:55:57;46.55;;;30.45;;
17595;SDS011;8916;47.086;15.920;2022-10-17T08:58:51;50.65;;;30.27;;
17595;SDS011;8916;47.086;15.920;2022-10-17T09:01:28;45.67;;;29.95;;
17595;SDS011;8916;47.086;15.920;2022-10-17T09:04:08;41.50;;;30.42;;
17595;SDS011;8916;47.086;15.920;2022-10-17T09:07:07;43.47;;;29.05;;
17595;SDS011;8916;47.086;15.920;2022-10-17T09:09:49;45.80;;;30.75;;
17595;SDS011;8916;47.086;15.920;2022-10-17T09:12:29;40.08;;;28.40;;
17595;SDS011;8916;47.086;15.920;2022-10-17T09:15:28;43.35;;;28.70;;
17595;SDS011;8916;47.086;15.920;2022-10-17T09:18:10;40.35;;;27.65;;
17595;SDS011;8916;47.086;15.920;2022-10-17T09:20:50;42.95;;;28.70;;
17595;SDS011;8916;47.086;15.920;2022-10-17T09:23:23;37.35;;;27.10;;
17595;SDS011;8916;47.086;15.920;2022-10-17T09:25:58;43.80;;;28.20;;
17595;SDS011;8916;47.086;15.920;2022-10-17T09:28:30;39.42;;;27.45;;
17595;SDS011;8916;47.086;15.920;2022-10-17T09:31:04;41.63;;;27.73;;
17595;SDS011;8916;47.086;15.920;2022-10-17T09:33:39;35.03;;;24.77;;
17595;SDS011;8916;47.086;15.920;2022-10-17T09:39:00;38.30;;;24.88;;
17595;SDS011;8916;47.086;15.920;2022-10-17T09:41:33;38.53;;;26.67;;
17595;SDS011;8916;47.086;15.920;2022-10-17T09:44:17;39.10;;;26.65;;
17595;SDS011;8916;47.086;15.920;2022-10-17T09:46:52;33.03;;;24.00;;
17595;SDS011;8916;47.086;15.920;2022-10-17T09:49:41;35.63;;;25.67;;
17595;SDS011;8916;47.086;15.920;2022-10-17T09:52:14;39.50;;;27.30;;
17595;SDS011;8916;47.086;15.920;2022-10-17T09:54:47;46.25;;;27.20;;
17595;SDS011;8916;47.086;15.920;2022-10-17T09:57:19;42.03;;;28.02;;
17595;SDS011;8916;47.086;15.920;2022-10-17T09:59:55;41.67;;;27.95;;
17595;SDS011;8916;47.086;15.920;2022-10-17T10:02:27;39.33;;;26.30;;
17595;SDS011;8916;47.086;15.920;2022-10-17T10:05:00;36.35;;;25.73;;
17595;SDS011;8916;47.086;15.920;2022-10-17T10:07:35;40.55;;;27.50;;
17595;SDS011;8916;47.086;15.920;2022-10-17T10:10:07;39.90;;;27.75;;
17595;SDS011;8916;47.086;15.920;2022-10-17T10:15:33;42.28;;;27.27;;
17595;SDS011;8916;47.086;15.920;2022-10-17T10:21:05;42.92;;;28.00;;
17595;SDS011;8916;47.086;15.920;2022-10-17T10:23:40;38.85;;;27.67;;
17595;SDS011;8916;47.086;15.920;2022-10-17T10:26:21;43.08;;;27.45;;
17595;SDS011;8916;47.086;15.920;2022-10-17T10:28:57;39.60;;;26.08;;
17595;SDS011;8916;47.086;15.920;2022-10-17T10:31:30;43.73;;;28.53;;
17595;SDS011;8916;47.086;15.920;2022-10-17T10:34:11;42.85;;;27.60;;
17595;SDS011;8916;47.086;15.920;2022-10-17T10:36:48;40.78;;;29.05;;
17595;SDS011;8916;47.086;15.920;2022-10-17T10:39:37;44.30;;;28.88;;
17595;SDS011;8916;47.086;15.920;2022-10-17T10:42:24;46.58;;;28.52;;
17595;SDS011;8916;47.086;15.920;2022-10-17T10:44:57;49.85;;;29.05;;
17595;SDS011;8916;47.086;15.920;2022-10-17T10:47:30;44.65;;;28.58;;
17595;SDS011;8916;47.086;15.920;2022-10-17T10:50:07;37.10;;;26.17;;
17595;SDS011;8916;47.086;15.920;2022-10-17T10:52:53;39.95;;;28.27;;
17595;SDS011;8916;47.086;15.920;2022-10-17T10:55:39;38.08;;;27.25;;
17595;SDS011;8916;47.086;15.920;2022-10-17T10:58:19;39.25;;;26.42;;
17595;SDS011;8916;47.086;15.920;2022-10-17T11:01:01;36.15;;;26.38;;
17595;SDS011;8916;47.086;15.920;2022-10-17T11:03:40;38.72;;;28.45;;
17595;SDS011;8916;47.086;15.920;2022-10-17T11:06:18;40.42;;;28.38;;
17595;SDS011;8916;47.086;15.920;2022-10-17T11:09:03;37.55;;;25.77;;
17595;SDS011;8916;47.086;15.920;2022-10-17T11:11:43;48.08;;;28.55;;
17595;SDS011;8916;47.086;15.920;2022-10-17T11:14:18;40.83;;;28.88;;
17595;SDS011;8916;47.086;15.920;2022-10-17T11:17:00;41.22;;;26.65;;
17595;SDS011;8916;47.086;15.920;2022-10-17T11:19:36;36.45;;;26.45;;
17595;SDS011;8916;47.086;15.920;2022-10-17T11:22:14;37.40;;;25.92;;
17595;SDS011;8916;47.086;15.920;2022-10-17T11:24:53;41.83;;;26.27;;
17595;SDS011;8916;47.086;15.920;2022-10-17T11:27:29;37.10;;;25.27;;
17595;SDS011;8916;47.086;15.920;2022-10-17T11:30:01;35.80;;;24.35;;
17595;SDS011;8916;47.086;15.920;2022-10-17T11:32:33;33.25;;;24.65;;
17595;SDS011;8916;47.086;15.920;2022-10-17T11:35:06;38.50;;;25.17;;
17595;SDS011;8916;47.086;15.920;2022-10-17T11:37:49;31.90;;;24.45;;
17595;SDS011;8916;47.086;15.920;2022-10-17T11:40:26;32.65;;;24.58;;
17595;SDS011;8916;47.086;15.920;2022-10-17T11:43:00;32.85;;;23.38;;
17595;SDS011;8916;47.086;15.920;2022-10-17T11:45:34;37.90;;;23.58;;
17595;SDS011;8916;47.086;15.920;2022-10-17T11:48:15;30.05;;;23.40;;
17595;SDS011;8916;47.086;15.920;2022-10-17T11:50:50;35.88;;;24.27;;
17595;SDS011;8916;47.086;15.920;2022-10-17T11:53:47;31.80;;;22.30;;
17595;SDS011;8916;47.086;15.920;2022-10-17T11:56:24;25.48;;;20.15;;
17595;SDS011;8916;47.086;15.920;2022-10-17T11:59:16;27.10;;;20.70;;
17595;SDS011;8916;47.086;15.920;2022-10-17T12:02:13;27.92;;;20.15;;
17595;SDS011;8916;47.086;15.920;2022-10-17T12:04:56;29.40;;;20.70;;
17595;SDS011;8916;47.086;15.920;2022-10-17T12:07:35;28.02;;;20.20;;
17595;SDS011;8916;47.086;15.920;2022-10-17T12:10:17;27.92;;;20.27;;
17595;SDS011;8916;47.086;15.920;2022-10-17T12:19:25;26.38;;;18.95;;
17595;SDS011;8916;47.086;15.920;2022-10-17T12:22:04;23.45;;;17.88;;
17595;SDS011;8916;47.086;15.920;2022-10-17T12:24:55;23.92;;;18.33;;
17595;SDS011;8916;47.086;15.920;2022-10-17T12:27:30;26.65;;;17.77;;
17595;SDS011;8916;47.086;15.920;2022-10-17T12:30:17;23.70;;;18.88;;
17595;SDS011;8916;47.086;15.920;2022-10-17T12:32:54;30.48;;;17.75;;
17595;SDS011;8916;47.086;15.920;2022-10-17T12:35:35;24.33;;;17.73;;
17595;SDS011;8916;47.086;15.920;2022-10-17T12:40:59;23.13;;;16.77;;
17595;SDS011;8916;47.086;15.920;2022-10-17T12:49:38;25.13;;;18.30;;
17595;SDS011;8916;47.086;15.920;2022-10-17T12:54:54;21.73;;;16.92;;
17595;SDS011;8916;47.086;15.920;2022-10-17T12:57:50;22.10;;;16.77;;
17595;SDS011;8916;47.086;15.920;2022-10-17T13:00:27;24.10;;;17.85;;
17595;SDS011;8916;47.086;15.920;2022-10-17T13:03:04;25.73;;;16.90;;
17595;SDS011;8916;47.086;15.920;2022-10-17T13:05:44;21.75;;;15.40;;
17595;SDS011;8916;47.086;15.920;2022-10-17T13:08:18;24.52;;;17.38;;
17595;SDS011;8916;47.086;15.920;2022-10-17T13:10:51;24.20;;;15.77;;
17595;SDS011;8916;47.086;15.920;2022-10-17T13:13:23;19.98;;;16.08;;
17595;SDS011;8916;47.086;15.920;2022-10-17T13:16:10;21.50;;;17.10;;
17595;SDS011;8916;47.086;15.920;2022-10-17T13:18:56;23.42;;;17.13;;
17595;SDS011;8916;47.086;15.920;2022-10-17T13:21:27;25.45;;;16.48;;
17595;SDS011;8916;47.086;15.920;2022-10-17T13:23:57;23.30;;;16.13;;
17595;SDS011;8916;47.086;15.920;2022-10-17T13:26:27;20.08;;;15.50;;
17595;SDS011;8916;47.086;15.920;2022-10-17T13:29:00;20.25;;;14.98;;
17595;SDS011;8916;47.086;15.920;2022-10-17T13:31:32;22.42;;;14.52;;
17595;SDS011;8916;47.086;15.920;2022-10-17T13:34:04;20.73;;;13.98;;
17595;SDS011;8916;47.086;15.920;2022-10-17T13:36:46;20.75;;;15.15;;
17595;SDS011;8916;47.086;15.920;2022-10-17T13:39:19;18.48;;;14.15;;
17595;SDS011;8916;47.086;15.920;2022-10-17T13:42:04;22.60;;;14.45;;
17595;SDS011;8916;47.086;15.920;2022-10-17T13:44:44;23.02;;;15.15;;
17595;SDS011;8916;47.086;15.920;2022-10-17T13:47:21;19.92;;;14.77;;
17595;SDS011;8916;47.086;15.920;2022-10-17T13:49:53;19.20;;;15.13;;
17595;SDS011;8916;47.086;15.920;2022-10-17T13:52:25;20.70;;;14.60;;
17595;SDS011;8916;47.086;15.920;2022-10-17T13:55:05;18.30;;;14.48;;
17595;SDS011;8916;47.086;15.920;2022-10-17T13:57:42;19.40;;;14.52;;
17595;SDS011;8916;47.086;15.920;2022-10-17T14:00:16;15.93;;;14.23;;
17595;SDS011;8916;47.086;15.920;2022-10-17T14:02:48;20.77;;;14.57;;
17595;SDS011;8916;47.086;15.920;2022-10-17T14:05:18;20.52;;;14.15;;
17595;SDS011;8916;47.086;15.920;2022-10-17T14:07:51;19.00;;;15.00;;
17595;SDS011;8916;47.086;15.920;2022-10-17T14:10:42;18.08;;;14.80;;
17595;SDS011;8916;47.086;15.920;2022-10-17T14:13:18;17.63;;;14.35;;
17595;SDS011;8916;47.086;15.920;2022-10-17T14:15:50;23.80;;;14.88;;
17595;SDS011;8916;47.086;15.920;2022-10-17T14:18:23;21.23;;;14.90;;
17595;SDS011;8916;47.086;15.920;2022-10-17T14:21:02;16.90;;;14.95;;
17595;SDS011;8916;47.086;15.920;2022-10-17T14:24:10;17.02;;;14.43;;
17595;SDS011;8916;47.086;15.920;2022-10-17T14:26:54;19.35;;;14.70;;
17595;SDS011;8916;47.086;15.920;2022-10-17T14:29:26;20.02;;;14.52;;
17595;SDS011;8916;47.086;15.920;2022-10-17T14:32:02;17.67;;;15.05;;
17595;SDS011;8916;47.086;15.920;2022-10-17T14:34:35;18.02;;;13.98;;
17595;SDS011;8916;47.086;15.920;2022-10-17T14:37:10;18.63;;;13.80;;
17595;SDS011;8916;47.086;15.920;2022-10-17T14:39:59;19.17;;;15.25;;
17595;SDS011;8916;47.086;15.920;2022-10-17T14:42:29;17.08;;;14.60;;
17595;SDS011;8916;47.086;15.920;2022-10-17T14:45:02;21.20;;;13.57;;
17595;SDS011;8916;47.086;15.920;2022-10-17T14:47:35;17.15;;;15.10;;
17595;SDS011;8916;47.086;15.920;2022-10-17T14:50:19;19.88;;;14.20;;
17595;SDS011;8916;47.086;15.920;2022-10-17T14:52:58;18.45;;;15.10;;
17595;SDS011;8916;47.086;15.920;2022-10-17T14:55:34;27.05;;;15.05;;
17595;SDS011;8916;47.086;15.920;2022-10-17T14:58:15;16.83;;;14.80;;
17595;SDS011;8916;47.086;15.920;2022-10-17T15:00:45;17.17;;;14.63;;
17595;SDS011;8916;47.086;15.920;2022-10-17T15:03:14;19.20;;;14.65;;
17595;SDS011;8916;47.086;15.920;2022-10-17T15:05:45;22.13;;;14.88;;
17595;SDS011;8916;47.086;15.920;2022-10-17T15:08:15;18.35;;;15.43;;
17595;SDS011;8916;47.086;15.920;2022-10-17T15:10:47;19.50;;;15.65;;
17595;SDS011;8916;47.086;15.920;2022-10-17T15:13:18;21.92;;;15.32;;
17595;SDS011;8916;47.086;15.920;2022-10-17T15:15:58;19.98;;;15.32;;
17595;SDS011;8916;47.086;15.920;2022-10-17T15:18:27;22.52;;;16.25;;
17595;SDS011;8916;47.086;15.920;2022-10-17T15:20:56;22.27;;;16.05;;
17595;SDS011;8916;47.086;15.920;2022-10-17T15:23:39;22.30;;;16.15;;
17595;SDS011;8916;47.086;15.920;2022-10-17T15:26:15;24.92;;;16.58;;
17595;SDS011;8916;47.086;15.920;2022-10-17T15:28:48;21.48;;;16.40;;
17595;SDS011;8916;47.086;15.920;2022-10-17T15:31:19;22.98;;;16.45;;
17595;SDS011;8916;47.086;15.920;2022-10-17T15:33:50;29.25;;;17.58;;
17595;SDS011;8916;47.086;15.920;2022-10-17T15:36:21;28.08;;;17.83;;
17595;SDS011;8916;47.086;15.920;2022-10-17T15:38:52;24.88;;;17.92;;
17595;SDS011;8916;47.086;15.920;2022-10-17T15:41:25;29.85;;;17.33;;
17595;SDS011;8916;47.086;15.920;2022-10-17T15:43:57;29.42;;;19.65;;
17595;SDS011;8916;47.086;15.920;2022-10-17T15:46:28;26.52;;;18.30;;
17595;SDS011;8916;47.086;15.920;2022-10-17T15:49:01;33.60;;;19.52;;